Nor Easter — V7HF2 — position and weather

sailwx.info

Track history (hours):
 
Tides and Currents Weather Stations Pressure Air Temp Water Temp Dewpoint Dewpoint Depression Visibility Wind Speed Wind Dir Waves Ship Positions

Nor Easter

Last reported at 2017-Nov-20 00:26 UTC. Time now 2017-Nov-23 17:03 UTC.
Position S 29°40' E 032°19'.

Length 181 m; draft 8.7 m.

Type: Ship. MMSI: 538002219.

Date/timePositionNaut miles runAvg speedWind from/ knotsBaromVisibWave heightAir tempDewpointWater temp
2017-Nov-20 00:26S 29°40' E 032°19'4 3.3
2017-Nov-19 23:20S 29°36' E 032°20'1 3.4
2017-Nov-19 23:00S 29°35' E 032°20'2 3.2
2017-Nov-19 22:26S 29°33' E 032°20'1 3.3
2017-Nov-19 21:59S 29°32' E 032°21'2 3.1
2017-Nov-19 21:22S 29°30' E 032°21'1 3.0
2017-Nov-19 21:00S 29°29' E 032°21'2 3.1
2017-Nov-19 20:23S 29°27' E 032°22'1 3.1
2017-Nov-19 20:01S 29°26' E 032°22'1 2.9
2017-Nov-19 19:30S 29°24' E 032°22'1 2.8
2017-Nov-19 19:01S 29°23' E 032°23'1 2.8
2017-Nov-19 18:31S 29°22' E 032°23'2 2.7
2017-Nov-19 17:54S 29°20' E 032°24'1 2.6
2017-Nov-19 17:30S 29°19' E 032°24'1 2.7
2017-Nov-19 17:01S 29°18' E 032°24'1 2.5
2017-Nov-19 16:31S 29°17' E 032°25'1 2.5
2017-Nov-19 16:00S 29°15' E 032°25'1 2.5
2017-Nov-19 15:31S 29°14' E 032°25'1 2.5
2017-Nov-19 15:00S 29°13' E 032°26'1 2.4
2017-Nov-19 14:30S 29°12' E 032°26'1 2.5
2017-Nov-19 14:00S 29°11' E 032°27'1 2.5
2017-Nov-19 13:31S 29°09' E 032°27'1 2.4
2017-Nov-19 13:00S 29°08' E 032°28'1 2.6
2017-Nov-19 12:30S 29°07' E 032°28'1 2.5
2017-Nov-19 12:00S 29°06' E 032°29'1 2.5
2017-Nov-19 11:30S 29°05' E 032°30'1 2.7
2017-Nov-19 11:01S 29°04' E 032°30'4 8.2
2017-Nov-19 10:31S 28°60' E 032°28'611.4
2017-Nov-19 10:00S 28°56' E 032°23'3 6.6
2017-Nov-19 09:30S 28°57' E 032°19'1 2.9
2017-Nov-19 09:00S 28°57' E 032°21'1 2.9
2017-Nov-19 08:31S 28°56' E 032°22'2 3.4
2017-Nov-19 08:00S 28°58' E 032°23'510.6
2017-Nov-19 07:31S 29°01' E 032°18'611.2
2017-Nov-19 07:00S 29°04' E 032°13'611.1
2017-Nov-19 06:30S 29°06' E 032°07'611.8
2017-Nov-19 06:00S 29°07' E 032°00'5 9.2
2017-Nov-19 05:30S 29°08' E 031°55'1 1.8
2017-Nov-19 05:01S 29°08' E 031°56'1 1.5
2017-Nov-19 04:30S 29°08' E 031°57'1 1.4
2017-Nov-19 04:00S 29°08' E 031°58'1 1.4
2017-Nov-19 03:30S 29°07' E 031°59'1 1.5
2017-Nov-19 03:00S 29°07' E 031°60'1 1.7
2017-Nov-19 02:30S 29°07' E 032°00'1 1.8
2017-Nov-19 02:01S 29°07' E 032°02'1 1.7
2017-Nov-19 01:31S 29°07' E 032°02'1 1.6
2017-Nov-19 01:01S 29°06' E 032°03'1 1.6
2017-Nov-19 00:31S 29°06' E 032°04'1 1.7
2017-Nov-19 00:01S 29°06' E 032°05'1 1.7
2017-Nov-18 23:31S 29°06' E 032°06'1 1.9
2017-Nov-18 23:00S 29°06' E 032°07'1 2.0
2017-Nov-18 22:31S 29°06' E 032°08'1 1.9
2017-Nov-18 22:00S 29°05' E 032°09'1 2.4
2017-Nov-18 21:31S 29°04' E 032°10'1 2.7
2017-Nov-18 21:01S 29°04' E 032°12'1 2.6
2017-Nov-18 20:31S 29°03' E 032°13'3 2.6
2017-Nov-18 19:31S 29°01' E 032°15'1 2.3
2017-Nov-18 19:00S 29°00' E 032°16'1 2.5
2017-Nov-18 18:30S 28°60' E 032°17'2 2.4
2017-Nov-18 17:52S 28°58' E 032°18'1 2.6
2017-Nov-18 17:31S 28°58' E 032°19'1 2.6
2017-Nov-18 17:01S 28°57' E 032°20'1 2.6
2017-Nov-18 16:31S 28°56' E 032°21'  
2017-Nov-15 08:18S 29°10' E 031°57'412.7
2017-Nov-15 08:00S 29°13' E 031°57'611.7
2017-Nov-15 07:30S 29°19' E 031°58'510.2
2017-Nov-15 07:01S 29°24' E 031°60'4 7.4
2017-Nov-15 06:30S 29°28' E 031°59'3 4.8
2017-Nov-15 05:54S 29°26' E 032°02'2 4.0
2017-Nov-15 05:24S 29°24' E 032°04'1 3.2
2017-Nov-15 05:01S 29°24' E 032°05'2 3.1
2017-Nov-15 04:30S 29°23' E 032°06'2 3.3
2017-Nov-15 03:59S 29°21' E 032°08'2 3.5
2017-Nov-15 03:30S 29°20' E 032°09'1 3.0
2017-Nov-15 03:00S 29°19' E 032°10'4 3.2
2017-Nov-15 01:54S 29°16' E 032°13'1 2.8
2017-Nov-15 01:26S 29°15' E 032°14'1 2.4
2017-Nov-15 01:00S 29°15' E 032°14'1 2.3
2017-Nov-15 00:30S 29°14' E 032°15'1 2.3
2017-Nov-14 23:59S 29°13' E 032°16'1 2.2
2017-Nov-14 23:31S 29°12' E 032°16'1 2.7
2017-Nov-14 22:58S 29°10' E 032°16'  
Track history (hours):
 
Tides and Currents Weather Stations Pressure Air Temp Water Temp Dewpoint Dewpoint Depression Visibility Wind Speed Wind Dir Waves Ship Positions

Nor Easter

Last reported at 2017-Nov-20 00:26 UTC. Time now 2017-Nov-23 17:03 UTC.
Position S 29°40' E 032°19'.

Length 181 m; draft 8.7 m.

Type: Ship. MMSI: 538002219.

Date/timePositionNaut miles runAvg speedWind from/ knotsBaromVisibWave heightAir tempDewpointWater temp
2017-Nov-20 00:26S 29°40' E 032°19'4 3.3
2017-Nov-19 23:20S 29°36' E 032°20'1 3.4
2017-Nov-19 23:00S 29°35' E 032°20'2 3.2
2017-Nov-19 22:26S 29°33' E 032°20'1 3.3
2017-Nov-19 21:59S 29°32' E 032°21'2 3.1
2017-Nov-19 21:22S 29°30' E 032°21'1 3.0
2017-Nov-19 21:00S 29°29' E 032°21'2 3.1
2017-Nov-19 20:23S 29°27' E 032°22'1 3.1
2017-Nov-19 20:01S 29°26' E 032°22'1 2.9
2017-Nov-19 19:30S 29°24' E 032°22'1 2.8
2017-Nov-19 19:01S 29°23' E 032°23'1 2.8
2017-Nov-19 18:31S 29°22' E 032°23'2 2.7
2017-Nov-19 17:54S 29°20' E 032°24'1 2.6
2017-Nov-19 17:30S 29°19' E 032°24'1 2.7
2017-Nov-19 17:01S 29°18' E 032°24'1 2.5
2017-Nov-19 16:31S 29°17' E 032°25'1 2.5
2017-Nov-19 16:00S 29°15' E 032°25'1 2.5
2017-Nov-19 15:31S 29°14' E 032°25'1 2.5
2017-Nov-19 15:00S 29°13' E 032°26'1 2.4
2017-Nov-19 14:30S 29°12' E 032°26'1 2.5
2017-Nov-19 14:00S 29°11' E 032°27'1 2.5
2017-Nov-19 13:31S 29°09' E 032°27'1 2.4
2017-Nov-19 13:00S 29°08' E 032°28'1 2.6
2017-Nov-19 12:30S 29°07' E 032°28'1 2.5
2017-Nov-19 12:00S 29°06' E 032°29'1 2.5
2017-Nov-19 11:30S 29°05' E 032°30'1 2.7
2017-Nov-19 11:01S 29°04' E 032°30'4 8.2
2017-Nov-19 10:31S 28°60' E 032°28'611.4
2017-Nov-19 10:00S 28°56' E 032°23'3 6.6
2017-Nov-19 09:30S 28°57' E 032°19'1 2.9
2017-Nov-19 09:00S 28°57' E 032°21'1 2.9
2017-Nov-19 08:31S 28°56' E 032°22'2 3.4
2017-Nov-19 08:00S 28°58' E 032°23'510.6
2017-Nov-19 07:31S 29°01' E 032°18'611.2
2017-Nov-19 07:00S 29°04' E 032°13'611.1
2017-Nov-19 06:30S 29°06' E 032°07'611.8
2017-Nov-19 06:00S 29°07' E 032°00'5 9.2
2017-Nov-19 05:30S 29°08' E 031°55'1 1.8
2017-Nov-19 05:01S 29°08' E 031°56'1 1.5
2017-Nov-19 04:30S 29°08' E 031°57'1 1.4
2017-Nov-19 04:00S 29°08' E 031°58'1 1.4
2017-Nov-19 03:30S 29°07' E 031°59'1 1.5
2017-Nov-19 03:00S 29°07' E 031°60'1 1.7
2017-Nov-19 02:30S 29°07' E 032°00'1 1.8
2017-Nov-19 02:01S 29°07' E 032°02'1 1.7
2017-Nov-19 01:31S 29°07' E 032°02'1 1.6
2017-Nov-19 01:01S 29°06' E 032°03'1 1.6
2017-Nov-19 00:31S 29°06' E 032°04'1 1.7
2017-Nov-19 00:01S 29°06' E 032°05'1 1.7
2017-Nov-18 23:31S 29°06' E 032°06'1 1.9
2017-Nov-18 23:00S 29°06' E 032°07'1 2.0
2017-Nov-18 22:31S 29°06' E 032°08'1 1.9
2017-Nov-18 22:00S 29°05' E 032°09'1 2.4
2017-Nov-18 21:31S 29°04' E 032°10'1 2.7
2017-Nov-18 21:01S 29°04' E 032°12'1 2.6
2017-Nov-18 20:31S 29°03' E 032°13'3 2.6
2017-Nov-18 19:31S 29°01' E 032°15'1 2.3
2017-Nov-18 19:00S 29°00' E 032°16'1 2.5
2017-Nov-18 18:30S 28°60' E 032°17'2 2.4
2017-Nov-18 17:52S 28°58' E 032°18'1 2.6
2017-Nov-18 17:31S 28°58' E 032°19'1 2.6
2017-Nov-18 17:01S 28°57' E 032°20'1 2.6
2017-Nov-18 16:31S 28°56' E 032°21'  
2017-Nov-15 08:18S 29°10' E 031°57'412.7
2017-Nov-15 08:00S 29°13' E 031°57'611.7
2017-Nov-15 07:30S 29°19' E 031°58'510.2
2017-Nov-15 07:01S 29°24' E 031°60'4 7.4
2017-Nov-15 06:30S 29°28' E 031°59'3 4.8
2017-Nov-15 05:54S 29°26' E 032°02'2 4.0
2017-Nov-15 05:24S 29°24' E 032°04'1 3.2
2017-Nov-15 05:01S 29°24' E 032°05'2 3.1
2017-Nov-15 04:30S 29°23' E 032°06'2 3.3
2017-Nov-15 03:59S 29°21' E 032°08'2 3.5
2017-Nov-15 03:30S 29°20' E 032°09'1 3.0
2017-Nov-15 03:00S 29°19' E 032°10'4 3.2
2017-Nov-15 01:54S 29°16' E 032°13'1 2.8
2017-Nov-15 01:26S 29°15' E 032°14'1 2.4
2017-Nov-15 01:00S 29°15' E 032°14'1 2.3
2017-Nov-15 00:30S 29°14' E 032°15'1 2.3
2017-Nov-14 23:59S 29°13' E 032°16'1 2.2
2017-Nov-14 23:31S 29°12' E 032°16'1 2.7
2017-Nov-14 22:58S 29°10' E 032°16'  

Dump ship's entire track history